Time;durP1;ratioP1;P1;durP2;ratioP2;P2;SDS_P1;SDS_P2;PMS_P1;PMS_P2;Temp;Humidity;BMP_temperature;BMP_pressure;BME280_temperature;BME280_humidity;BME280_pressure;Samples;Min_cycle;Max_cycle;Signal;HPM_P1;HPM_P2
2022/07/21 00:04:51;;;;;;;5.80;3.03;;;19.40;71.40;;;;;;4648776;30;20285;-81
2022/07/21 00:07:18;;;;;;;6.40;2.83;;;19.40;72.80;;;;;;4674288;24;20065;-83
2022/07/21 00:09:48;;;;;;;7.10;2.60;;;19.40;72.40;;;;;;4717058;24;20050;-82
2022/07/21 00:12:36;;;;;;;10.73;3.20;;;19.30;73.50;;;;;;4667754;30;20528;-84
2022/07/21 00:15:08;;;;;;;8.60;3.15;;;21.70;74.30;;;;;;4667465;30;20370;-83
2022/07/21 00:17:50;;;;;;;6.22;3.05;;;19.50;73.70;;;;;;4666426;30;20074;-82
2022/07/21 00:20:18;;;;;;;5.97;2.85;;;16.60;73.10;;;;;;4716492;24;20099;-82
2022/07/21 00:25:21;;;;;;;6.03;2.80;;;19.10;74.00;;;;;;3832986;28;20078;-83
2022/07/21 00:27:55;;;;;;;5.95;3.00;;;19.20;75.70;;;;;;4650735;30;20078;-82
2022/07/21 00:30:21;;;;;;;6.22;2.85;;;19.00;75.40;;;;;;4724526;24;20062;-85
2022/07/21 00:32:47;;;;;;;5.15;2.83;;;18.90;75.80;;;;;;4666448;30;20509;-84
2022/07/21 00:35:19;;;;;;;5.32;2.55;;;18.90;76.00;;;;;;4671520;24;20086;-82
2022/07/21 00:37:45;;;;;;;7.05;3.00;;;18.80;76.90;;;;;;4667528;30;20034;-84
2022/07/21 00:40:13;;;;;;;9.32;3.38;;;19.30;77.50;;;;;;4666094;30;20695;-82
2022/07/21 00:43:10;;;;;;;9.65;3.17;;;18.70;77.10;;;;;;4674633;24;20088;-83
2022/07/21 00:45:36;;;;;;;6.75;2.70;;;19.70;78.20;;;;;;4666128;30;20046;-82
2022/07/21 00:48:09;;;;;;;5.50;2.58;;;18.60;78.00;;;;;;4666880;30;20049;-82
2022/07/21 00:50:35;;;;;;;7.85;3.03;;;18.60;78.90;;;;;;4879580;24;20062;-85
2022/07/21 00:53:00;;;;;;;6.28;2.83;;;18.60;78.30;;;;;;4670529;30;20046;-83
2022/07/21 00:55:35;;;;;;;11.00;3.08;;;18.60;79.10;;;;;;4670322;30;20500;-82
2022/07/21 01:01:20;;;;;;;7.78;3.15;;;18.50;79.50;;;;;;4661989;28;20328;-81
2022/07/21 01:03:46;;;;;;;9.57;2.85;;;19.40;80.20;;;;;;4682912;30;20042;-82
2022/07/21 01:06:12;;;;;;;5.78;3.00;;;18.40;80.70;;;;;;4668861;30;20046;-82
2022/07/21 01:14:13;;;;;;;6.65;3.05;;;18.40;81.00;;;;;;4719303;24;20054;-82
2022/07/21 01:16:48;;;;;;;5.63;2.75;;;18.30;81.70;;;;;;4652466;30;20051;-82
2022/07/21 01:19:27;;;;;;;7.40;3.28;;;18.30;83.00;;;;;;4667935;24;20482;-83
2022/07/21 01:22:31;;;;;;;6.97;3.33;;;18.90;83.20;;;;;;4668605;30;20145;-84
2022/07/21 01:24:56;;;;;;;6.10;3.00;;;18.70;82.90;;;;;;4669049;30;20064;-82
2022/07/21 01:27:39;;;;;;;7.32;3.03;;;18.20;83.00;;;;;;4670333;30;20527;-84
2022/07/21 01:37:51;;;;;;;5.90;2.90;;;18.10;84.10;;;;;;4690410;24;20165;-83
2022/07/21 01:43:39;;;;;;;6.63;3.00;;;18.00;85.70;;;;;;4670158;30;20431;-82
2022/07/21 01:46:12;;;;;;;7.05;3.20;;;18.00;88.10;;;;;;4668520;30;20410;-83
2022/07/21 01:48:42;;;;;;;8.20;3.00;;;17.90;86.30;;;;;;4668643;30;20069;-82
2022/07/21 01:51:08;;;;;;;7.18;2.65;;;17.90;86.60;;;;;;4668371;30;20108;-83
2022/07/21 01:53:34;;;;;;;6.95;3.05;;;17.80;86.70;;;;;;4668450;30;20042;-85
2022/07/21 01:56:08;;;;;;;5.68;3.25;;;17.90;86.90;;;;;;4669472;30;20058;-80
2022/07/21 01:58:34;;;;;;;7.18;3.53;;;17.80;87.30;;;;;;4668569;30;20335;-82
2022/07/21 02:03:35;;;;;;;8.35;3.15;;;17.80;88.30;;;;;;4757529;24;20543;-83
2022/07/21 02:06:04;;;;;;;4.95;2.67;;;17.70;88.50;;;;;;4670189;30;20057;-82
2022/07/21 02:08:30;;;;;;;5.93;3.05;;;17.70;88.70;;;;;;4673873;30;20034;-83
2022/07/21 02:10:56;;;;;;;6.97;2.75;;;17.70;89.10;;;;;;4675529;30;20038;-80
2022/07/21 02:13:23;;;;;;;6.28;3.15;;;17.70;89.40;;;;;;4675819;30;20327;-82
2022/07/21 02:16:03;;;;;;;5.70;3.08;;;17.70;89.60;;;;;;4676028;30;20050;-81
2022/07/21 02:18:51;;;;;;;6.82;3.55;;;17.70;89.90;;;;;;4674760;30;20163;-82
2022/07/21 02:21:17;;;;;;;5.30;2.80;;;17.80;89.30;;;;;;4661385;24;20772;-81
2022/07/21 02:23:43;;;;;;;6.07;2.70;;;17.70;89.90;;;;;;4669075;30;20207;-81
2022/07/21 02:26:11;;;;;;;6.88;3.25;;;17.80;89.70;;;;;;4668428;30;20038;-80
2022/07/21 02:28:37;;;;;;;8.18;3.40;;;17.80;90.10;;;;;;4668215;30;20232;-81
2022/07/21 02:31:03;;;;;;;6.85;3.35;;;17.80;90.00;;;;;;4670064;30;20121;-80
2022/07/21 02:33:43;;;;;;;5.85;2.65;;;17.80;90.10;;;;;;4669725;30;20133;-83
2022/07/21 02:36:12;;;;;;;6.90;2.88;;;17.20;89.60;;;;;;4667986;30;20538;-82
2022/07/21 02:39:31;;;;;;;7.60;3.30;;;17.80;89.80;;;;;;4669048;30;20487;-81
2022/07/21 02:41:57;;;;;;;6.80;3.28;;;17.80;90.50;;;;;;4664922;30;20549;-85
2022/07/21 02:45:00;;;;;;;7.13;3.53;;;17.50;90.40;;;;;;4668829;30;20046;-81
2022/07/21 02:50:51;;;;;;;8.82;3.50;;;17.70;90.00;;;;;;4668750;30;20558;-82
2022/07/21 02:53:23;;;;;;;5.57;3.20;;;17.60;90.50;;;;;;4668667;30;20038;-81
2022/07/21 02:56:09;;;;;;;7.15;2.97;;;17.60;90.30;;;;;;4667211;30;20030;-82
2022/07/21 02:58:47;;;;;;;5.45;2.75;;;18.70;90.70;;;;;;4667140;30;20106;-82
2022/07/21 03:01:13;;;;;;;7.47;2.78;;;17.60;90.80;;;;;;4665000;30;20060;-82
2022/07/21 03:03:46;;;;;;;7.60;2.83;;;17.50;90.60;;;;;;4665481;30;20062;-83
2022/07/21 03:06:11;;;;;;;5.75;2.58;;;18.30;91.10;;;;;;4665720;30;20079;-83
2022/07/21 03:08:49;;;;;;;8.13;3.00;;;17.40;91.00;;;;;;4665211;30;20296;-82
2022/07/21 03:14:19;;;;;;;5.85;2.53;;;17.40;91.00;;;;;;4665034;30;20244;-82
2022/07/21 03:17:02;;;;;;;8.02;3.55;;;17.30;91.40;;;;;;4651241;30;20400;-82
2022/07/21 03:22:12;;;;;;;;;;;17.40;91.40;;;;;;4775441;24;20069;-80
2022/07/21 03:25:03;;;;;;;6.82;2.95;;;17.10;91.60;;;;;;4666931;30;19915;-83
2022/07/21 03:27:57;;;;;;;7.25;2.90;;;17.30;91.10;;;;;;4747063;24;20485;-84
2022/07/21 03:30:54;;;;;;;5.75;2.80;;;17.90;91.50;;;;;;4667086;30;20042;-84
2022/07/21 03:33:31;;;;;;;6.22;2.90;;;17.40;92.00;;;;;;4666469;30;20038;-81
2022/07/21 03:36:15;;;;;;;7.93;3.05;;;17.20;91.90;;;;;;4668083;30;20242;-81
2022/07/21 03:38:56;;;;;;;7.35;3.22;;;17.20;92.00;;;;;;4668047;30;20125;-82
2022/07/21 03:41:34;;;;;;;7.70;3.20;;;17.20;92.90;;;;;;4666282;30;20536;-82
2022/07/21 03:44:09;;;;;;;10.35;3.20;;;17.40;92.90;;;;;;4668115;30;20190;-82
2022/07/21 03:46:49;;;;;;;7.65;3.70;;;17.20;93.20;;;;;;4666480;30;20136;-84
2022/07/21 03:52:21;;;;;;;6.38;2.85;;;17.10;92.10;;;;;;4668217;30;20053;-81
2022/07/21 03:55:14;;;;;;;6.90;2.95;;;17.00;92.70;;;;;;4667789;30;20262;-81
2022/07/21 03:57:46;;;;;;;7.35;3.58;;;16.30;92.10;;;;;;4665656;30;20074;-81
2022/07/21 04:01:00;;;;;;;7.07;3.70;;;17.00;92.60;;;;;;4666222;30;20133;-83
2022/07/21 04:03:36;;;;;;;6.75;3.17;;;17.00;92.10;;;;;;4615192;30;20135;-82
2022/07/21 04:06:02;;;;;;;9.10;3.20;;;17.00;92.20;;;;;;4599862;31;20039;-82
2022/07/21 04:08:38;;;;;;;8.98;3.47;;;17.00;92.50;;;;;;4599894;31;20050;-81
2022/07/21 04:11:05;;;;;;;6.55;3.03;;;17.00;93.40;;;;;;4613790;31;20496;-81
2022/07/21 04:13:37;;;;;;;10.48;4.07;;;17.00;92.40;;;;;;4614098;31;20054;-83
2022/07/21 04:16:18;;;;;;;6.65;3.22;;;17.00;93.00;;;;;;4613840;31;20358;-83
2022/07/21 04:18:59;;;;;;;5.88;2.67;;;17.00;92.40;;;;;;4613684;30;20604;-82
2022/07/21 04:21:24;;;;;;;6.88;3.50;;;17.10;93.00;;;;;;4741937;24;20061;-81
2022/07/21 04:23:50;;;;;;;8.48;3.13;;;17.10;92.70;;;;;;4757641;24;20622;-82
2022/07/21 04:26:16;;;;;;;6.70;3.40;;;17.10;92.80;;;;;;4667118;30;20069;-81
2022/07/21 04:29:42;;;;;;;5.65;2.90;;;17.20;92.50;;;;;;4717995;24;20062;-82
2022/07/21 04:34:19;;;;;;;8.40;2.88;;;17.10;93.00;;;;;;4727301;24;20062;-82
2022/07/21 04:37:38;;;;;;;6.10;2.67;;;17.10;93.30;;;;;;4670951;30;20092;-81
2022/07/21 04:40:31;;;;;;;6.72;3.38;;;17.10;92.60;;;;;;4670782;30;20530;-86
2022/07/21 04:43:19;;;;;;;7.15;4.32;;;17.70;93.00;;;;;;4669752;30;20072;-82
2022/07/21 04:45:57;;;;;;;7.45;2.97;;;17.10;92.90;;;;;;4669470;30;20038;-82
2022/07/21 04:54:07;;;;;;;7.15;2.72;;;17.40;92.10;;;;;;4810264;24;20521;-82
2022/07/21 04:56:42;;;;;;;5.80;2.50;;;17.40;92.60;;;;;;4670414;30;20196;-82
2022/07/21 04:59:22;;;;;;;6.05;2.95;;;17.40;92.50;;;;;;4669821;30;20148;-82
2022/07/21 05:11:04;;;;;;;11.80;5.28;;;18.00;92.20;;;;;;4688536;24;20145;-82
2022/07/21 05:13:42;;;;;;;8.90;4.57;;;20.20;92.40;;;;;;4670198;30;20053;-81
2022/07/21 05:24:52;;;;;;;6.63;3.33;;;18.60;91.00;;;;;;4723211;24;20086;-82
2022/07/21 05:27:17;;;;;;;6.70;3.20;;;18.70;90.60;;;;;;4668297;30;20499;-82
2022/07/21 05:29:43;;;;;;;6.95;3.42;;;18.80;90.70;;;;;;4668593;30;20073;-81
2022/07/21 05:32:11;;;;;;;5.85;2.95;;;18.80;90.60;;;;;;4668327;30;20442;-83
2022/07/21 05:40:16;;;;;;;6.03;3.53;;;19.10;90.90;;;;;;4670021;30;20053;-82
2022/07/21 05:42:41;;;;;;;6.55;3.05;;;18.90;90.70;;;;;;4668390;30;20124;-83
2022/07/21 05:45:47;;;;;;;6.60;3.08;;;19.30;90.00;;;;;;4669898;30;20046;-83
2022/07/21 05:48:48;;;;;;;8.90;3.83;;;20.10;90.00;;;;;;4668298;30;20358;-82
2022/07/21 05:51:22;;;;;;;8.05;3.58;;;19.50;89.90;;;;;;4669278;30;20295;-81
2022/07/21 05:53:51;;;;;;;8.40;3.88;;;19.50;90.00;;;;;;4667828;30;20038;-83
2022/07/21 05:56:17;;;;;;;7.38;3.67;;;19.70;89.70;;;;;;4668086;30;20038;-84
2022/07/21 05:58:43;;;;;;;6.72;3.15;;;19.70;89.10;;;;;;4667653;30;20038;-83
2022/07/21 06:01:13;;;;;;;9.40;3.80;;;19.70;88.80;;;;;;4667690;30;20502;-82
2022/07/21 06:03:41;;;;;;;7.00;3.40;;;19.90;87.70;;;;;;4669417;30;20450;-82
2022/07/21 06:06:08;;;;;;;8.02;4.03;;;20.00;87.40;;;;;;4667636;30;20085;-82
2022/07/21 06:08:39;;;;;;;7.55;4.22;;;20.20;87.40;;;;;;4668178;30;20042;-82
2022/07/21 06:11:08;;;;;;;9.68;4.13;;;20.30;86.60;;;;;;4667911;30;20030;-83
2022/07/21 06:17:06;;;;;;;7.57;4.25;;;20.60;85.90;;;;;;4669287;30;20442;-82
2022/07/21 06:19:37;;;;;;;8.25;4.30;;;20.80;84.40;;;;;;4667527;30;20045;-84
2022/07/21 06:26:14;;;;;;;8.52;4.10;;;21.30;84.10;;;;;;4669448;30;20073;-82
2022/07/21 06:31:56;;;;;;;9.75;4.80;;;22.70;83.80;;;;;;4683593;24;20084;-82
2022/07/21 06:34:57;;;;;;;10.88;4.78;;;21.40;84.50;;;;;;4653477;30;20112;-81
2022/07/21 06:45:56;;;;;;;10.48;4.93;;;22.00;81.50;;;;;;4704430;24;20062;-82
2022/07/21 06:48:23;;;;;;;11.13;4.93;;;22.20;81.80;;;;;;4668005;30;20275;-82
2022/07/21 06:50:49;;;;;;;12.35;5.40;;;22.30;80.70;;;;;;4667517;30;20048;-83
2022/07/21 06:53:18;;;;;;;10.82;6.25;;;22.40;80.40;;;;;;4667259;30;20045;-81
2022/07/21 06:58:41;;;;;;;8.63;4.78;;;22.60;79.80;;;;;;4650131;30;20444;-82
2022/07/21 07:01:51;;;;;;;9.73;4.95;;;22.70;79.70;;;;;;4754268;24;20068;-83
2022/07/21 07:04:43;;;;;;;13.02;4.60;;;23.90;79.50;;;;;;4681181;30;20147;-85
2022/07/21 07:07:12;;;;;;;10.07;4.25;;;;;;;;;;4667802;30;20100;-83
2022/07/21 07:09:41;;;;;;;10.38;4.28;;;22.90;77.20;;;;;;4652871;30;20684;-82
2022/07/21 07:12:19;;;;;;;8.50;4.50;;;23.00;77.30;;;;;;4666715;30;20050;-83
2022/07/21 07:14:44;;;;;;;7.55;4.07;;;23.20;75.50;;;;;;4668250;30;20068;-82
2022/07/21 07:22:21;;;;;;;8.70;3.92;;;23.20;74.40;;;;;;3066492;28;20262;-81
2022/07/21 07:24:47;;;;;;;12.63;4.30;;;23.50;73.60;;;;;;4666415;30;20501;-82
2022/07/21 07:27:39;;;;;;;6.75;3.55;;;23.70;72.40;;;;;;4666613;30;20045;-82
2022/07/21 07:30:48;;;;;;;9.10;4.15;;;23.80;72.80;;;;;;4613856;30;20047;-82
2022/07/21 07:33:37;;;;;;;7.03;3.90;;;24.30;72.60;;;;;;4614983;30;20574;-81
2022/07/21 07:50:00;;;;;;;8.07;4.18;;;25.00;68.10;;;;;;4600549;28;20050;-81
2022/07/21 07:53:06;;;;;;;8.27;3.90;;;27.30;68.20;;;;;;4862353;24;20066;-80
2022/07/21 07:59:08;;;;;;;9.10;3.88;;;24.40;64.70;;;;;;4671232;30;20416;-83
2022/07/21 08:06:52;;;;;;;9.18;4.45;;;26.20;64.50;;;;;;3678072;24;20069;-81
2022/07/21 08:10:32;;;;;;;7.47;3.70;;;26.30;63.10;;;;;;4670459;30;20675;-82
2022/07/21 08:22:12;;;;;;;11.10;3.70;;;26.50;61.00;;;;;;4662429;24;20090;-82
2022/07/21 08:24:40;;;;;;;9.25;3.35;;;26.90;60.40;;;;;;4666638;30;20136;-84
2022/07/21 08:27:06;;;;;;;8.45;4.30;;;27.10;60.70;;;;;;4667142;30;20522;-83
2022/07/21 08:32:13;;;;;;;8.60;3.67;;;27.50;60.30;;;;;;4867750;24;20565;-82
2022/07/21 08:34:39;;;;;;;7.28;3.78;;;27.40;59.50;;;;;;4669215;30;20341;-81
2022/07/21 08:37:07;;;;;;;8.50;4.07;;;27.50;60.00;;;;;;4675551;24;20419;-82
2022/07/21 08:39:33;;;;;;;7.65;3.75;;;27.60;59.60;;;;;;4671059;30;20322;-82
2022/07/21 08:42:08;;;;;;;7.40;3.65;;;27.90;59.50;;;;;;4668852;30;20070;-83
2022/07/21 08:44:35;;;;;;;7.65;3.72;;;28.10;58.50;;;;;;4669384;30;20109;-83
2022/07/21 08:49:43;;;;;;;7.75;3.97;;;28.50;56.90;;;;;;4726501;24;20054;-83
2022/07/21 08:52:08;;;;;;;6.55;3.80;;;28.40;57.50;;;;;;4668906;30;20112;-81
2022/07/21 08:55:08;;;;;;;10.57;4.25;;;28.60;57.50;;;;;;4668852;30;20522;-82
2022/07/21 09:01:08;;;;;;;;;;;29.60;58.20;;;;;;4668266;30;20046;-83
2022/07/21 09:12:00;;;;;;;7.95;3.90;;;29.30;57.50;;;;;;4650266;30;20371;-84
2022/07/21 09:15:05;;;;;;;11.13;4.20;;;28.80;55.90;;;;;;4653220;30;20045;-84
2022/07/21 09:18:11;;;;;;;7.78;3.72;;;27.50;54.30;;;;;;4653245;30;20030;-83
2022/07/21 09:20:58;;;;;;;12.73;4.13;;;28.10;54.00;;;;;;4652641;30;20374;-83
2022/07/21 09:45:29;;;;;;;6.25;3.38;;;32.10;54.90;;;;;;4615483;31;20296;-83
2022/07/21 10:33:14;;;;;;;8.68;2.92;;;33.40;45.70;;;;;;4896371;24;21693;-84
2022/07/21 10:35:51;;;;;;;11.25;3.05;;;32.80;45.30;;;;;;4679048;30;20054;-84
2022/07/21 10:39:13;;;;;;;;;;;;;;;;;;;;;
2022/07/21 11:10:48;;;;;;;5.55;2.42;;;33.80;42.00;;;;;;5734591;24;20028;31
2022/07/21 11:20:59;;;;;;;8.88;2.30;;;33.30;40.70;;;;;;4649061;30;20054;-84
2022/07/21 12:05:50;;;;;;;4.13;1.95;;;37.50;38.10;;;;;;4906099;24;20153;-82
2022/07/21 12:14:54;;;;;;;3.67;2.15;;;38.40;37.10;;;;;;4650308;30;20071;-84
2022/07/21 12:18:00;;;;;;;6.20;1.88;;;38.90;35.70;;;;;;4650288;30;20053;-83
2022/07/21 12:23:40;;;;;;;4.88;1.92;;;39.60;35.60;;;;;;4723132;24;20582;-82
2022/07/21 12:26:33;;;;;;;5.55;1.98;;;41.60;36.30;;;;;;4665404;30;20049;-82
2022/07/21 12:29:00;;;;;;;5.35;2.30;;;39.20;35.70;;;;;;4665955;30;20053;-81
2022/07/21 12:38:55;;;;;;;6.63;2.57;;;41.20;33.80;;;;;;4664567;30;20392;-82
2022/07/21 12:41:45;;;;;;;5.63;2.20;;;40.40;33.60;;;;;;4664236;30;20536;-81
2022/07/21 12:47:34;;;;;;;3.47;1.80;;;42.10;34.20;;;;;;5049017;24;20042;-82
2022/07/21 12:58:05;;;;;;;5.82;2.08;;;41.30;34.00;;;;;;4651372;30;20081;-83
2022/07/21 13:01:08;;;;;;;6.10;2.28;;;41.30;34.50;;;;;;4635933;30;20259;-82
2022/07/21 13:03:44;;;;;;;4.13;2.00;;;43.10;35.20;;;;;;4666108;30;20375;-82
2022/07/21 13:06:13;;;;;;;5.95;2.30;;;40.80;35.10;;;;;;4653112;30;20128;-82
2022/07/21 13:08:58;;;;;;;4.60;2.10;;;40.90;34.50;;;;;;4649693;30;20042;-84
2022/07/21 13:11:39;;;;;;;5.10;1.73;;;40.50;34.40;;;;;;4635813;30;20630;-83
2022/07/21 13:22:09;;;;;;;4.45;1.90;;;42.50;33.30;;;;;;4116621;24;20078;-82
2022/07/21 13:36:00;;;;;;;6.28;1.77;;;41.60;33.70;;;;;;4735503;24;20062;-82
2022/07/21 13:45:30;;;;;;;4.00;1.85;;;42.90;33.20;;;;;;5316544;24;20075;-82
2022/07/21 15:26:10;;;;;;;6.38;3.00;;;40.40;35.30;;;;;;5064437;24;20251;-83
2022/07/21 15:28:36;;;;;;;4.43;2.95;;;40.50;36.10;;;;;;4666050;30;20049;-83
2022/07/21 15:31:10;;;;;;;5.65;2.85;;;39.80;35.70;;;;;;4667981;30;20038;-83
2022/07/21 15:33:45;;;;;;;6.30;3.60;;;39.60;36.40;;;;;;4666377;30;20083;-83
2022/07/21 15:36:33;;;;;;;5.90;3.15;;;39.40;36.50;;;;;;4668216;30;20041;-84
2022/07/21 15:39:09;;;;;;;6.32;4.32;;;40.40;36.80;;;;;;4666404;30;20515;-82
2022/07/21 15:41:51;;;;;;;6.88;3.00;;;39.00;36.40;;;;;;4667801;30;20042;-83
2022/07/21 15:44:35;;;;;;;6.25;3.28;;;40.60;37.30;;;;;;4667683;30;20152;-82
2022/07/21 15:47:49;;;;;;;8.15;3.17;;;39.30;36.50;;;;;;4666104;30;20038;-82
2022/07/21 16:19:41;;;;;;;6.22;3.05;;;42.70;37.90;;;;;;4644788;30;20057;-83
2022/07/21 16:24:42;;;;;;;4.45;2.75;;;39.40;36.10;;;;;;4731646;24;20530;-82
2022/07/21 16:27:14;;;;;;;6.72;3.50;;;40.00;37.10;;;;;;4874480;24;20069;-81
2022/07/21 16:32:58;;;;;;;4.50;2.80;;;39.20;36.00;;;;;;4951238;24;19972;-83
2022/07/21 16:38:27;;;;;;;7.35;3.88;;;;;;;;;;5511199;24;20633;-81
2022/07/21 16:44:19;;;;;;;7.65;3.83;;;35.60;36.30;;;;;;4670943;30;20557;-81
2022/07/21 16:49:41;;;;;;;5.88;3.30;;;37.50;36.60;;;;;;5631428;24;20067;-83
2022/07/21 16:52:59;;;;;;;6.10;3.17;;;41.00;41.60;;;;;;4636899;30;20458;-84
2022/07/21 17:05:46;;;;;;;8.07;3.45;;;36.10;38.80;;;;;;4840561;25;20296;-83
2022/07/21 17:08:36;;;;;;;7.00;3.90;;;35.90;38.80;;;;;;4673343;30;20059;-82
2022/07/21 17:16:19;;;;;;;6.22;3.10;;;35.40;39.80;;;;;;4684829;24;20074;-81
2022/07/21 17:24:30;;;;;;;8.98;2.95;;;34.30;40.50;;;;;;4683057;24;20096;-82
2022/07/21 17:33:18;;;;;;;5.28;2.85;;;30.60;39.40;;;;;;4666916;30;20593;-83
2022/07/21 17:35:44;;;;;;;6.78;2.80;;;33.10;44.10;;;;;;4668790;30;20408;-84
2022/07/21 17:38:25;;;;;;;8.07;2.38;;;33.00;43.00;;;;;;4670093;30;20112;-83
2022/07/21 17:40:51;;;;;;;7.95;3.00;;;32.50;43.10;;;;;;4668469;30;20359;-84
2022/07/21 17:43:21;;;;;;;7.50;2.97;;;32.10;43.40;;;;;;4668749;30;20085;-83
2022/07/21 17:45:59;;;;;;;6.88;3.17;;;31.80;43.90;;;;;;4668999;30;20049;-82
2022/07/21 17:48:35;;;;;;;;;;;;;;;;;;;;;
2022/07/21 17:51:20;;;;;;;5.38;2.78;;;31.40;42.90;;;;;;4671766;30;20041;-82
2022/07/21 17:56:27;;;;;;;7.00;2.70;;;31.10;43.20;;;;;;3006110;28;20082;-82
2022/07/21 17:58:53;;;;;;;4.50;2.25;;;;;;;;;;4665591;30;20046;-83
2022/07/21 18:01:28;;;;;;;7.90;3.28;;;31.10;43.00;;;;;;4652052;30;20303;-83
2022/07/21 18:03:54;;;;;;;6.07;2.72;;;30.90;44.30;;;;;;4651679;30;20050;-84
2022/07/21 18:06:22;;;;;;;6.63;2.67;;;30.70;44.50;;;;;;4651753;30;20034;-83
2022/07/21 18:08:51;;;;;;;6.70;2.88;;;30.60;44.20;;;;;;4664628;30;20054;-82
2022/07/21 18:11:17;;;;;;;5.30;2.58;;;30.50;44.60;;;;;;4664297;30;20566;-84
2022/07/21 18:13:46;;;;;;;8.18;3.05;;;30.30;44.80;;;;;;4664310;30;20152;-82
2022/07/21 18:19:30;;;;;;;9.65;3.15;;;29.90;45.00;;;;;;4611323;31;20254;-83
2022/07/21 18:22:28;;;;;;;8.13;3.13;;;29.90;46.50;;;;;;4296649;24;15238620;-85
2022/07/21 18:25:26;;;;;;;7.95;3.33;;;29.70;47.10;;;;;;4645984;30;20125;-83
2022/07/21 18:27:55;;;;;;;5.80;2.35;;;28.70;45.90;;;;;;4632672;30;20505;-83
2022/07/21 18:30:21;;;;;;;8.98;2.85;;;29.40;46.90;;;;;;4633777;30;20594;-82
2022/07/21 18:32:50;;;;;;;8.57;2.80;;;29.40;47.10;;;;;;4633770;30;20445;-82
2022/07/21 18:35:43;;;;;;;;;;;;;;;;;;;;;
2022/07/21 18:38:10;;;;;;;6.65;2.95;;;;;;;;;;4634565;30;20423;-82
2022/07/21 18:40:59;;;;;;;6.88;2.72;;;29.00;47.40;;;;;;4635180;30;20070;-82
2022/07/21 18:43:27;;;;;;;8.20;2.70;;;27.40;47.70;;;;;;4614696;31;20171;-83
2022/07/21 18:45:53;;;;;;;9.23;3.70;;;28.80;49.00;;;;;;4660940;24;20153;-82
2022/07/21 18:48:19;;;;;;;8.77;3.30;;;28.70;48.40;;;;;;4667469;30;20129;-83
2022/07/21 18:51:00;;;;;;;6.80;3.08;;;28.60;49.10;;;;;;4668903;30;20438;-82
2022/07/21 18:53:29;;;;;;;8.05;2.60;;;28.70;49.00;;;;;;4668705;30;20400;-85
2022/07/21 18:55:58;;;;;;;9.18;3.53;;;28.40;49.00;;;;;;4666938;30;20042;-82
2022/07/21 18:58:24;;;;;;;5.40;2.72;;;28.30;49.20;;;;;;4667618;30;20053;-84
2022/07/21 19:00:51;;;;;;;6.13;3.10;;;28.20;49.00;;;;;;4667704;30;20435;-81
2022/07/21 19:03:18;;;;;;;7.63;3.05;;;28.10;49.40;;;;;;4667052;30;20455;-83
2022/07/21 19:09:00;;;;;;;;;;;;;;;;;;;;;
2022/07/21 19:11:19;;;;;;;6.97;3.00;;;27.70;51.30;;;;;;4670968;30;20254;-81
2022/07/21 19:13:47;;;;;;;8.85;2.63;;;27.60;50.90;;;;;;4677782;24;20534;-81
2022/07/21 19:16:13;;;;;;;9.27;3.30;;;27.50;50.90;;;;;;4667374;30;20048;-82
2022/07/21 19:18:44;;;;;;;9.05;2.70;;;27.40;51.20;;;;;;4667585;30;20042;-82
2022/07/21 19:24:51;;;;;;;;;;;;;;;;;;;;;
2022/07/21 19:34:10;;;;;;;6.38;2.58;;;27.00;50.90;;;;;;5520205;24;20276;-80
2022/07/21 19:36:39;;;;;;;7.35;2.75;;;28.30;52.30;;;;;;4797065;24;20066;-81
2022/07/21 19:39:07;;;;;;;7.40;3.40;;;26.90;51.90;;;;;;4668868;30;20342;-83
2022/07/21 19:44:21;;;;;;;4.63;2.20;;;26.70;51.90;;;;;;4672907;24;20080;-82
2022/07/21 20:06:48;;;;;;;;;;;;;;;;;;;;;
2022/07/21 20:09:39;;;;;;;;;;;;;;;;;;;;;
2022/07/21 20:14:48;;;;;;;6.05;2.78;;;25.60;54.80;;;;;;4922354;24;20072;-83
2022/07/21 20:17:21;;;;;;;5.40;2.50;;;25.50;55.20;;;;;;4666351;30;20249;-83
2022/07/21 20:19:49;;;;;;;8.65;2.95;;;25.60;56.80;;;;;;4666783;30;20043;-82
2022/07/21 20:22:31;;;;;;;6.90;3.10;;;27.10;57.90;;;;;;4666555;30;20335;-82
2022/07/21 20:24:57;;;;;;;5.10;2.88;;;25.40;56.60;;;;;;4669590;30;20064;-83
2022/07/21 20:27:43;;;;;;;5.57;2.47;;;25.30;56.80;;;;;;4670058;30;20355;-84
2022/07/21 20:30:22;;;;;;;5.35;2.72;;;23.50;55.40;;;;;;4668083;30;20144;-82
2022/07/21 20:38:24;;;;;;;5.18;3.05;;;24.90;57.50;;;;;;4658254;24;20082;-82
2022/07/21 20:41:22;;;;;;;9.55;2.72;;;28.30;59.50;;;;;;4666472;30;20034;-83
2022/07/21 20:43:52;;;;;;;7.95;3.17;;;24.90;58.70;;;;;;4614055;31;20055;-83
2022/07/21 20:46:42;;;;;;;6.20;2.70;;;24.70;59.00;;;;;;4600128;31;20039;-82
2022/07/21 20:49:45;;;;;;;4.82;2.50;;;25.10;58.40;;;;;;4614184;31;20074;-83
2022/07/21 20:52:51;;;;;;;4.63;2.60;;;24.70;58.70;;;;;;4614030;31;20067;-82
2022/07/21 20:55:17;;;;;;;6.20;2.92;;;23.80;58.10;;;;;;4613792;31;20261;-82
2022/07/21 20:57:46;;;;;;;7.85;3.03;;;24.50;58.80;;;;;;4614516;31;20068;-83
2022/07/21 21:00:12;;;;;;;6.63;2.80;;;24.30;58.90;;;;;;4614821;31;20054;-83
2022/07/21 21:05:45;;;;;;;4.03;2.53;;;24.20;59.10;;;;;;4675060;24;20537;-83
2022/07/21 21:08:30;;;;;;;4.95;2.40;;;24.10;58.60;;;;;;4619262;24;20825;-82
2022/07/21 21:13:58;;;;;;;7.95;3.17;;;25.10;60.00;;;;;;4678285;24;20490;-82
2022/07/21 21:17:10;;;;;;;7.15;2.50;;;23.20;60.10;;;;;;4670948;30;20059;-81
2022/07/21 21:23:15;;;;;;;6.40;2.55;;;24.40;61.80;;;;;;4616427;31;20769;-83
2022/07/21 21:29:28;;;;;;;7.57;3.15;;;26.30;63.70;;;;;;4613823;31;20387;-81
2022/07/21 21:32:23;;;;;;;8.23;3.42;;;24.70;61.30;;;;;;4615993;30;20578;-80
2022/07/21 21:47:18;;;;;;;6.88;3.22;;;23.40;61.60;;;;;;4675771;24;20303;-84
2022/07/21 21:58:17;;;;;;;7.07;3.28;;;23.10;63.50;;;;;;4694203;24;20065;-81
2022/07/21 22:00:42;;;;;;;8.98;2.65;;;23.10;63.70;;;;;;4667887;30;20045;-83
2022/07/21 22:03:18;;;;;;;9.68;3.42;;;23.00;63.80;;;;;;4667896;30;20046;-82
2022/07/21 22:05:47;;;;;;;7.05;2.67;;;23.90;64.60;;;;;;4669047;30;20071;-82
2022/07/21 22:09:21;;;;;;;5.43;2.95;;;22.90;64.20;;;;;;4881539;24;20321;-85
2022/07/21 22:12:15;;;;;;;8.10;3.57;;;23.60;64.20;;;;;;4670080;30;20042;-82
2022/07/21 22:14:46;;;;;;;8.65;4.13;;;22.80;65.90;;;;;;4670239;30;20846;-82
2022/07/21 22:17:50;;;;;;;9.80;4.18;;;21.50;64.70;;;;;;4669304;30;20331;-83
2022/07/21 22:26:07;;;;;;;9.38;3.47;;;22.40;66.20;;;;;;4650043;30;20773;-84
2022/07/21 22:29:00;;;;;;;7.35;3.30;;;22.30;66.10;;;;;;4615429;30;20106;-82
2022/07/21 22:31:26;;;;;;;6.07;2.70;;;21.30;66.00;;;;;;4601020;31;20040;-81
2022/07/21 22:37:36;;;;;;;5.40;2.92;;;22.20;67.10;;;;;;4673836;24;20073;-82
2022/07/21 22:40:05;;;;;;;6.70;3.17;;;21.00;67.00;;;;;;4793185;24;20068;-82
2022/07/21 22:42:31;;;;;;;5.60;2.75;;;22.10;67.60;;;;;;4668866;30;20046;-84
2022/07/21 22:44:57;;;;;;;5.47;2.53;;;22.10;67.70;;;;;;4667022;30;20573;-81
2022/07/21 22:47:42;;;;;;;6.32;2.90;;;22.00;68.00;;;;;;4822537;24;20073;-82
2022/07/21 22:50:09;;;;;;;8.98;2.97;;;21.90;68.60;;;;;;4667775;30;20608;-82
2022/07/21 22:52:36;;;;;;;7.45;2.90;;;21.90;68.30;;;;;;4667513;30;20081;-85
2022/07/21 22:55:03;;;;;;;10.50;2.80;;;21.90;68.30;;;;;;4666958;30;20072;-81
2022/07/21 22:57:30;;;;;;;6.07;2.97;;;21.90;68.60;;;;;;4667180;30;20049;-83
2022/07/21 22:59:56;;;;;;;10.38;3.25;;;21.90;68.50;;;;;;4667173;30;20046;-84
2022/07/21 23:02:21;;;;;;;10.70;3.15;;;21.80;69.10;;;;;;4667154;30;20547;-82
2022/07/21 23:04:48;;;;;;;5.43;2.85;;;21.70;69.60;;;;;;4753028;24;20140;-83
2022/07/21 23:07:19;;;;;;;6.18;2.95;;;21.70;69.20;;;;;;4666896;30;20238;-81
2022/07/21 23:09:59;;;;;;;7.88;3.92;;;21.60;69.60;;;;;;4819372;24;20082;-82
2022/07/21 23:13:09;;;;;;;6.70;2.92;;;21.90;69.80;;;;;;4668202;30;20050;-81
2022/07/21 23:15:35;;;;;;;7.05;3.08;;;22.30;70.80;;;;;;4666782;30;20044;-81
2022/07/21 23:18:16;;;;;;;5.10;2.90;;;21.50;71.00;;;;;;4667407;30;20034;-81
2022/07/21 23:20:58;;;;;;;11.68;2.92;;;21.50;71.20;;;;;;4668372;30;20339;-81
2022/07/21 23:23:24;;;;;;;5.85;2.90;;;21.20;71.20;;;;;;4668806;30;20397;-81
2022/07/21 23:25:50;;;;;;;7.35;3.00;;;21.40;71.40;;;;;;4666798;30;20419;-82
2022/07/21 23:28:15;;;;;;;6.53;3.10;;;21.30;71.80;;;;;;4668877;30;20050;-82
2022/07/21 23:30:42;;;;;;;5.30;2.63;;;21.30;71.70;;;;;;4667799;30;20049;-81
2022/07/21 23:33:08;;;;;;;7.03;3.10;;;21.20;72.30;;;;;;4668605;30;20124;-80
2022/07/21 23:35:34;;;;;;;6.70;3.25;;;21.20;72.30;;;;;;4679130;30;20046;-81
2022/07/21 23:38:00;;;;;;;9.23;3.00;;;21.20;72.50;;;;;;4683363;30;20045;-81
2022/07/21 23:40:27;;;;;;;6.85;2.65;;;21.20;72.90;;;;;;4685197;30;20605;-82
2022/07/21 23:42:53;;;;;;;6.43;2.78;;;21.10;73.00;;;;;;4683869;30;20159;-81
2022/07/21 23:45:19;;;;;;;12.18;3.60;;;21.10;73.00;;;;;;4680109;30;20798;-82
2022/07/21 23:47:45;;;;;;;10.70;3.00;;;21.00;73.70;;;;;;4668181;30;20435;-83
2022/07/21 23:52:50;;;;;;;9.50;2.90;;;20.90;74.00;;;;;;4651143;30;20070;-82
2022/07/21 23:55:33;;;;;;;6.88;2.95;;;20.80;75.40;;;;;;4652647;30;20121;-83